sensor_id;sensor_type;location;lat;lon;timestamp;pressure;altitude;pressure_sealevel;temperature;humidity
141;BME280;65;48.778;9.160;2023-12-20T00:01:11;98549.47;;;6.40;100.00
141;BME280;65;48.778;9.160;2023-12-20T00:03:57;98538.00;;;6.43;100.00
141;BME280;65;48.778;9.160;2023-12-20T00:06:43;98536.22;;;6.43;100.00
141;BME280;65;48.778;9.160;2023-12-20T00:09:29;98524.19;;;6.38;100.00
141;BME280;65;48.778;9.160;2023-12-20T00:12:15;98529.81;;;6.50;100.00
141;BME280;65;48.778;9.160;2023-12-20T00:15:00;98530.19;;;6.41;100.00
141;BME280;65;48.778;9.160;2023-12-20T00:17:46;98528.81;;;6.31;100.00
141;BME280;65;48.778;9.160;2023-12-20T00:20:32;98524.94;;;6.41;100.00
141;BME280;65;48.778;9.160;2023-12-20T00:23:18;98523.81;;;6.47;100.00
141;BME280;65;48.778;9.160;2023-12-20T00:26:03;98519.44;;;6.47;100.00
141;BME280;65;48.778;9.160;2023-12-20T00:28:49;98518.19;;;6.34;100.00
141;BME280;65;48.778;9.160;2023-12-20T00:31:35;98521.13;;;6.26;100.00
141;BME280;65;48.778;9.160;2023-12-20T00:34:21;98507.00;;;6.09;100.00
141;BME280;65;48.778;9.160;2023-12-20T00:37:07;98513.34;;;6.03;100.00
141;BME280;65;48.778;9.160;2023-12-20T00:39:53;98508.72;;;5.86;100.00
141;BME280;65;48.778;9.160;2023-12-20T00:42:39;98507.69;;;5.67;100.00
141;BME280;65;48.778;9.160;2023-12-20T00:45:25;98508.69;;;5.64;100.00
141;BME280;65;48.778;9.160;2023-12-20T00:48:11;98520.25;;;5.59;100.00
141;BME280;65;48.778;9.160;2023-12-20T00:50:57;98508.41;;;5.49;100.00
141;BME280;65;48.778;9.160;2023-12-20T00:53:43;98518.22;;;5.44;100.00
141;BME280;65;48.778;9.160;2023-12-20T00:56:29;98508.28;;;5.52;100.00
141;BME280;65;48.778;9.160;2023-12-20T00:59:16;98504.38;;;5.40;100.00
141;BME280;65;48.778;9.160;2023-12-20T01:02:02;98507.09;;;5.37;100.00
141;BME280;65;48.778;9.160;2023-12-20T01:04:47;98508.81;;;5.38;100.00
141;BME280;65;48.778;9.160;2023-12-20T01:07:33;98512.56;;;5.31;100.00
141;BME280;65;48.778;9.160;2023-12-20T01:10:19;98525.03;;;5.24;100.00
141;BME280;65;48.778;9.160;2023-12-20T01:13:05;98525.16;;;5.21;100.00
141;BME280;65;48.778;9.160;2023-12-20T01:15:50;98526.25;;;5.14;100.00
141;BME280;65;48.778;9.160;2023-12-20T01:18:36;98532.47;;;5.12;100.00
141;BME280;65;48.778;9.160;2023-12-20T01:21:22;98534.91;;;5.16;100.00
141;BME280;65;48.778;9.160;2023-12-20T01:24:08;98527.28;;;5.10;100.00
141;BME280;65;48.778;9.160;2023-12-20T01:26:53;98534.41;;;5.06;100.00
141;BME280;65;48.778;9.160;2023-12-20T01:29:39;98529.22;;;5.05;100.00
141;BME280;65;48.778;9.160;2023-12-20T01:32:25;98538.03;;;5.02;100.00
141;BME280;65;48.778;9.160;2023-12-20T01:35:10;98541.34;;;5.07;100.00
141;BME280;65;48.778;9.160;2023-12-20T01:37:57;98541.50;;;5.03;100.00
141;BME280;65;48.778;9.160;2023-12-20T01:40:43;98541.50;;;5.03;100.00
141;BME280;65;48.778;9.160;2023-12-20T01:43:29;98535.47;;;5.01;100.00
141;BME280;65;48.778;9.160;2023-12-20T01:46:15;98540.81;;;4.98;100.00
141;BME280;65;48.778;9.160;2023-12-20T01:49:02;98542.63;;;4.96;100.00
141;BME280;65;48.778;9.160;2023-12-20T01:51:48;98542.63;;;4.96;100.00
141;BME280;65;48.778;9.160;2023-12-20T01:54:35;98540.06;;;4.94;100.00
141;BME280;65;48.778;9.160;2023-12-20T01:57:21;98534.84;;;4.94;100.00
141;BME280;65;48.778;9.160;2023-12-20T02:00:07;98526.13;;;4.94;100.00
141;BME280;65;48.778;9.160;2023-12-20T02:02:55;98528.69;;;4.95;100.00
141;BME280;65;48.778;9.160;2023-12-20T02:05:41;98538.34;;;4.93;100.00
141;BME280;65;48.778;9.160;2023-12-20T02:08:26;98540.06;;;4.94;100.00
141;BME280;65;48.778;9.160;2023-12-20T02:11:12;98538.34;;;4.93;100.00
141;BME280;65;48.778;9.160;2023-12-20T02:13:58;98534.09;;;4.91;100.00
141;BME280;65;48.778;9.160;2023-12-20T02:16:44;98538.41;;;4.92;100.00
141;BME280;65;48.778;9.160;2023-12-20T02:19:30;98536.69;;;4.91;100.00
141;BME280;65;48.778;9.160;2023-12-20T02:22:17;98539.31;;;4.91;100.00
141;BME280;65;48.778;9.160;2023-12-20T02:25:03;98535.03;;;4.88;100.00
141;BME280;65;48.778;9.160;2023-12-20T02:27:49;98537.56;;;4.91;100.00
141;BME280;65;48.778;9.160;2023-12-20T02:30:35;98539.22;;;4.94;100.00
141;BME280;65;48.778;9.160;2023-12-20T02:33:21;98534.03;;;4.92;100.00
141;BME280;65;48.778;9.160;2023-12-20T02:36:06;98530.56;;;4.92;100.00
141;BME280;65;48.778;9.160;2023-12-20T02:38:58;98540.91;;;4.95;100.00
141;BME280;65;48.778;9.160;2023-12-20T02:41:43;98545.31;;;4.94;100.00
141;BME280;65;48.778;9.160;2023-12-20T02:44:29;98543.53;;;4.95;100.00
141;BME280;65;48.778;9.160;2023-12-20T02:47:15;98540.13;;;4.93;100.00
141;BME280;65;48.778;9.160;2023-12-20T02:50:01;98544.44;;;4.94;100.00
141;BME280;65;48.778;9.160;2023-12-20T02:52:47;98536.66;;;4.92;100.00
141;BME280;65;48.778;9.160;2023-12-20T02:55:32;98534.09;;;4.91;100.00
141;BME280;65;48.778;9.160;2023-12-20T02:58:18;98541.09;;;4.90;100.00
141;BME280;65;48.778;9.160;2023-12-20T03:01:04;98543.66;;;4.92;100.00
141;BME280;65;48.778;9.160;2023-12-20T03:03:50;98541.94;;;4.91;100.00
141;BME280;65;48.778;9.160;2023-12-20T03:06:35;98539.31;;;4.91;100.00
141;BME280;65;48.778;9.160;2023-12-20T03:09:21;98549.78;;;4.91;100.00
141;BME280;65;48.778;9.160;2023-12-20T03:12:07;98553.28;;;4.91;100.00
141;BME280;65;48.778;9.160;2023-12-20T03:14:53;98550.59;;;4.93;100.00
141;BME280;65;48.778;9.160;2023-12-20T03:17:38;98554.94;;;4.94;100.00
141;BME280;65;48.778;9.160;2023-12-20T03:20:24;98557.59;;;4.92;100.00
141;BME280;65;48.778;9.160;2023-12-20T03:23:11;98563.63;;;4.94;100.00
141;BME280;65;48.778;9.160;2023-12-20T03:25:57;98560.13;;;4.95;100.00
141;BME280;65;48.778;9.160;2023-12-20T03:28:43;98555.78;;;4.94;100.00
141;BME280;65;48.778;9.160;2023-12-20T03:31:28;98558.34;;;4.96;100.00
141;BME280;65;48.778;9.160;2023-12-20T03:34:14;98560.06;;;4.97;100.00
141;BME280;65;48.778;9.160;2023-12-20T03:37:00;98551.41;;;4.95;100.00
141;BME280;65;48.778;9.160;2023-12-20T03:39:45;98558.25;;;4.99;100.00
141;BME280;65;48.778;9.160;2023-12-20T03:42:31;98561.66;;;5.01;100.00
141;BME280;65;48.778;9.160;2023-12-20T03:45:17;98572.19;;;4.99;100.00
141;BME280;65;48.778;9.160;2023-12-20T03:48:03;98568.78;;;4.97;100.00
141;BME280;65;48.778;9.160;2023-12-20T03:50:49;98564.53;;;4.93;100.00
141;BME280;65;48.778;9.160;2023-12-20T03:53:34;98577.69;;;4.92;100.00
141;BME280;65;48.778;9.160;2023-12-20T03:56:20;98583.88;;;4.89;100.00
141;BME280;65;48.778;9.160;2023-12-20T03:59:06;98577.91;;;4.86;100.00
141;BME280;65;48.778;9.160;2023-12-20T04:01:54;98571.53;;;4.93;100.00
141;BME280;65;48.778;9.160;2023-12-20T04:04:39;98572.56;;;4.89;100.00
141;BME280;65;48.778;9.160;2023-12-20T04:07:25;98571.75;;;4.87;100.00
141;BME280;65;48.778;9.160;2023-12-20T04:10:11;98587.63;;;4.82;100.00
141;BME280;65;48.778;9.160;2023-12-20T04:12:57;98580.78;;;4.78;100.00
141;BME280;65;48.778;9.160;2023-12-20T04:15:42;98572.88;;;4.80;100.00
141;BME280;65;48.778;9.160;2023-12-20T04:18:28;98564.13;;;4.81;100.00
141;BME280;65;48.778;9.160;2023-12-20T04:21:14;98572.03;;;4.79;100.00
141;BME280;65;48.778;9.160;2023-12-20T04:23:59;98585.16;;;4.78;100.00
141;BME280;65;48.778;9.160;2023-12-20T04:26:45;98596.66;;;4.73;100.00
141;BME280;65;48.778;9.160;2023-12-20T04:29:31;98599.31;;;4.72;100.00
141;BME280;65;48.778;9.160;2023-12-20T04:32:17;98599.38;;;4.70;100.00
141;BME280;65;48.778;9.160;2023-12-20T04:35:03;98588.00;;;4.71;100.00
141;BME280;65;48.778;9.160;2023-12-20T04:37:49;98593.34;;;4.68;100.00
141;BME280;65;48.778;9.160;2023-12-20T04:40:35;98586.44;;;4.66;100.00
141;BME280;65;48.778;9.160;2023-12-20T04:43:21;98591.78;;;4.63;100.00
141;BME280;65;48.778;9.160;2023-12-20T04:46:06;98610.91;;;4.65;100.00
141;BME280;65;48.778;9.160;2023-12-20T04:48:52;98613.59;;;4.62;100.00
141;BME280;65;48.778;9.160;2023-12-20T04:51:38;98614.38;;;4.65;100.00
141;BME280;65;48.778;9.160;2023-12-20T04:54:23;98598.75;;;4.62;100.00
141;BME280;65;48.778;9.160;2023-12-20T04:57:09;98606.59;;;4.62;100.00
141;BME280;65;48.778;9.160;2023-12-20T04:59:55;98610.16;;;4.60;100.00
141;BME280;65;48.778;9.160;2023-12-20T05:02:41;98616.22;;;4.62;100.00
141;BME280;65;48.778;9.160;2023-12-20T05:05:27;98620.56;;;4.63;100.00
141;BME280;65;48.778;9.160;2023-12-20T05:08:13;98624.03;;;4.63;100.00
141;BME280;65;48.778;9.160;2023-12-20T05:10:58;98616.25;;;4.60;100.00
141;BME280;65;48.778;9.160;2023-12-20T05:13:44;98624.91;;;4.62;100.00
141;BME280;65;48.778;9.160;2023-12-20T05:16:30;98618.81;;;4.63;100.00
141;BME280;65;48.778;9.160;2023-12-20T05:19:15;98625.81;;;4.63;100.00
141;BME280;65;48.778;9.160;2023-12-20T05:22:02;98636.22;;;4.64;100.00
141;BME280;65;48.778;9.160;2023-12-20T05:24:47;98634.50;;;4.63;100.00
141;BME280;65;48.778;9.160;2023-12-20T05:27:33;98628.38;;;4.64;100.00
141;BME280;65;48.778;9.160;2023-12-20T05:30:19;98639.66;;;4.66;100.00
141;BME280;65;48.778;9.160;2023-12-20T05:33:05;98642.06;;;4.72;100.00
141;BME280;65;48.778;9.160;2023-12-20T05:35:51;98645.59;;;4.71;100.00
141;BME280;65;48.778;9.160;2023-12-20T05:38:37;98648.25;;;4.70;100.00
141;BME280;65;48.778;9.160;2023-12-20T05:41:23;98648.41;;;4.65;100.00
141;BME280;65;48.778;9.160;2023-12-20T05:44:08;98656.16;;;4.68;100.00
141;BME280;65;48.778;9.160;2023-12-20T05:46:54;98655.25;;;4.69;100.00
141;BME280;65;48.778;9.160;2023-12-20T05:49:40;98661.09;;;4.78;100.00
141;BME280;65;48.778;9.160;2023-12-20T05:52:26;98669.00;;;4.76;100.00
141;BME280;65;48.778;9.160;2023-12-20T05:55:11;98674.38;;;4.71;100.00
141;BME280;65;48.778;9.160;2023-12-20T05:57:57;98677.16;;;4.67;100.00
141;BME280;65;48.778;9.160;2023-12-20T06:00:43;98681.53;;;4.66;100.00
141;BME280;65;48.778;9.160;2023-12-20T06:03:29;98688.47;;;4.67;100.00
141;BME280;65;48.778;9.160;2023-12-20T06:06:14;98692.00;;;4.66;100.00
141;BME280;65;48.778;9.160;2023-12-20T06:09:00;98699.63;;;4.74;100.00
141;BME280;65;48.778;9.160;2023-12-20T06:11:48;98699.66;;;4.72;100.00
141;BME280;65;48.778;9.160;2023-12-20T06:14:34;98697.91;;;4.73;100.00
141;BME280;65;48.778;9.160;2023-12-20T06:17:20;98687.31;;;4.76;100.00
141;BME280;65;48.778;9.160;2023-12-20T06:20:07;98694.19;;;4.80;100.00
141;BME280;65;48.778;9.160;2023-12-20T06:22:53;98704.75;;;4.77;100.00
141;BME280;65;48.778;9.160;2023-12-20T06:25:38;98698.56;;;4.80;100.00
141;BME280;65;48.778;9.160;2023-12-20T06:28:24;98701.22;;;4.78;100.00
141;BME280;65;48.778;9.160;2023-12-20T06:31:10;98694.22;;;4.79;100.00
141;BME280;65;48.778;9.160;2023-12-20T06:33:55;98687.28;;;4.78;100.00
141;BME280;65;48.778;9.160;2023-12-20T06:36:43;98683.72;;;4.80;100.00
141;BME280;65;48.778;9.160;2023-12-20T06:39:29;98684.66;;;4.78;100.00
141;BME280;65;48.778;9.160;2023-12-20T06:42:16;98695.09;;;4.79;100.00
141;BME280;65;48.778;9.160;2023-12-20T06:45:02;98705.59;;;4.78;100.00
141;BME280;65;48.778;9.160;2023-12-20T06:47:47;98700.38;;;4.78;100.00
141;BME280;65;48.778;9.160;2023-12-20T06:50:33;98708.22;;;4.78;100.00
141;BME280;65;48.778;9.160;2023-12-20T06:53:19;98716.75;;;4.84;100.00
141;BME280;65;48.778;9.160;2023-12-20T06:56:05;98719.31;;;4.86;100.00
141;BME280;65;48.778;9.160;2023-12-20T06:58:51;98716.66;;;4.87;100.00
141;BME280;65;48.778;9.160;2023-12-20T07:01:37;98718.25;;;4.91;100.00
141;BME280;65;48.778;9.160;2023-12-20T07:04:23;98721.38;;;5.02;100.00
141;BME280;65;48.778;9.160;2023-12-20T07:07:09;98728.47;;;4.99;100.00
141;BME280;65;48.778;9.160;2023-12-20T07:09:54;98730.34;;;4.95;100.00
141;BME280;65;48.778;9.160;2023-12-20T07:12:40;98740.91;;;4.92;100.00
141;BME280;65;48.778;9.160;2023-12-20T07:15:26;98739.22;;;4.91;100.00
141;BME280;65;48.778;9.160;2023-12-20T07:18:12;98755.78;;;4.92;100.00
141;BME280;65;48.778;9.160;2023-12-20T07:20:58;98753.00;;;4.96;100.00
141;BME280;65;48.778;9.160;2023-12-20T07:23:44;98752.06;;;4.99;100.00
141;BME280;65;48.778;9.160;2023-12-20T07:26:29;98765.16;;;4.99;100.00
141;BME280;65;48.778;9.160;2023-12-20T07:29:15;98789.38;;;5.05;100.00
141;BME280;65;48.778;9.160;2023-12-20T07:32:01;98775.47;;;5.03;100.00
141;BME280;65;48.778;9.160;2023-12-20T07:34:47;98784.81;;;5.12;100.00
141;BME280;65;48.778;9.160;2023-12-20T07:37:33;98783.25;;;5.06;100.00
141;BME280;65;48.778;9.160;2023-12-20T07:40:19;98785.22;;;5.00;100.00
141;BME280;65;48.778;9.160;2023-12-20T07:43:05;98794.97;;;4.95;100.00
141;BME280;65;48.778;9.160;2023-12-20T07:45:50;98795.91;;;4.92;100.00
141;BME280;65;48.778;9.160;2023-12-20T07:48:37;98802.09;;;4.90;100.00
141;BME280;65;48.778;9.160;2023-12-20T07:51:22;98789.25;;;4.82;100.00
141;BME280;65;48.778;9.160;2023-12-20T07:54:08;98798.19;;;4.75;100.00
141;BME280;65;48.778;9.160;2023-12-20T07:56:55;98788.72;;;4.71;100.00
141;BME280;65;48.778;9.160;2023-12-20T07:59:41;98793.06;;;4.72;100.00
141;BME280;65;48.778;9.160;2023-12-20T08:02:26;98798.28;;;4.72;100.00
141;BME280;65;48.778;9.160;2023-12-20T08:05:12;98798.34;;;4.70;100.00
141;BME280;65;48.778;9.160;2023-12-20T08:07:59;98793.34;;;4.61;100.00
141;BME280;65;48.778;9.160;2023-12-20T08:10:44;98791.72;;;4.57;100.00
141;BME280;65;48.778;9.160;2023-12-20T08:13:30;98801.47;;;4.52;100.00
141;BME280;65;48.778;9.160;2023-12-20T08:16:16;98814.56;;;4.52;100.00
141;BME280;65;48.778;9.160;2023-12-20T08:19:03;98807.59;;;4.51;100.00
141;BME280;65;48.778;9.160;2023-12-20T08:21:49;98817.22;;;4.51;100.00
141;BME280;65;48.778;9.160;2023-12-20T08:24:34;98821.31;;;4.59;100.00
141;BME280;65;48.778;9.160;2023-12-20T08:27:20;98828.94;;;4.68;100.00
141;BME280;65;48.778;9.160;2023-12-20T08:30:09;98823.63;;;4.71;100.00
141;BME280;65;48.778;9.160;2023-12-20T08:32:57;98824.28;;;4.78;100.00
141;BME280;65;48.778;9.160;2023-12-20T08:35:45;98825.06;;;4.82;100.00
141;BME280;65;48.778;9.160;2023-12-20T08:38:30;98827.09;;;4.72;100.00
141;BME280;65;48.778;9.160;2023-12-20T08:41:17;98836.31;;;4.54;100.00
141;BME280;65;48.778;9.160;2023-12-20T08:44:03;98839.38;;;4.39;100.00
141;BME280;65;48.778;9.160;2023-12-20T08:46:49;98846.47;;;4.34;100.00
141;BME280;65;48.778;9.160;2023-12-20T08:49:34;98841.63;;;4.20;100.00
141;BME280;65;48.778;9.160;2023-12-20T08:52:20;98849.69;;;4.12;100.00
141;BME280;65;48.778;9.160;2023-12-20T08:55:06;98854.22;;;4.04;100.00
141;BME280;65;48.778;9.160;2023-12-20T08:57:52;98852.38;;;4.09;100.00
141;BME280;65;48.778;9.160;2023-12-20T09:00:38;98855.97;;;4.05;100.00
141;BME280;65;48.778;9.160;2023-12-20T09:03:24;98841.88;;;4.11;100.00
141;BME280;65;48.778;9.160;2023-12-20T09:06:10;98838.28;;;4.15;100.00
141;BME280;65;48.778;9.160;2023-12-20T09:08:55;98840.81;;;4.18;100.00
141;BME280;65;48.778;9.160;2023-12-20T09:11:41;98841.06;;;4.40;100.00
141;BME280;65;48.778;9.160;2023-12-20T09:14:27;98849.66;;;4.45;100.00
141;BME280;65;48.778;9.160;2023-12-20T09:17:13;98854.03;;;4.44;100.00
141;BME280;65;48.778;9.160;2023-12-20T09:19:59;98845.31;;;4.44;100.00
141;BME280;65;48.778;9.160;2023-12-20T09:22:45;98842.63;;;4.47;100.00
141;BME280;65;48.778;9.160;2023-12-20T09:25:31;98836.44;;;4.50;100.00
141;BME280;65;48.778;9.160;2023-12-20T09:28:17;98837.84;;;4.61;100.00
141;BME280;65;48.778;9.160;2023-12-20T09:31:04;98851.09;;;4.55;100.00
141;BME280;65;48.778;9.160;2023-12-20T09:33:50;98849.31;;;4.57;100.00
141;BME280;65;48.778;9.160;2023-12-20T09:36:36;98852.50;;;4.68;100.00
141;BME280;65;48.778;9.160;2023-12-20T09:39:21;98850.53;;;4.76;100.00
141;BME280;65;48.778;9.160;2023-12-20T09:42:08;98858.34;;;4.78;100.00
141;BME280;65;48.778;9.160;2023-12-20T09:44:55;98859.00;;;4.85;100.00
141;BME280;65;48.778;9.160;2023-12-20T09:47:43;98863.97;;;4.94;100.00
141;BME280;65;48.778;9.160;2023-12-20T09:50:30;98862.84;;;5.02;100.00
141;BME280;65;48.778;9.160;2023-12-20T09:53:19;98868.94;;;5.03;100.00
141;BME280;65;48.778;9.160;2023-12-20T09:56:05;98868.16;;;4.99;100.00
141;BME280;65;48.778;9.160;2023-12-20T09:58:51;98869.66;;;5.08;100.00
141;BME280;65;48.778;9.160;2023-12-20T10:01:39;98871.38;;;5.09;100.00
141;BME280;65;48.778;9.160;2023-12-20T10:04:25;98867.88;;;5.08;100.00
141;BME280;65;48.778;9.160;2023-12-20T10:07:11;98870.13;;;5.22;100.00
141;BME280;65;48.778;9.160;2023-12-20T10:09:57;98868.06;;;5.32;100.00
141;BME280;65;48.778;9.160;2023-12-20T10:13:07;98874.34;;;5.54;100.00
141;BME280;65;48.778;9.160;2023-12-20T10:15:55;98868.34;;;5.77;100.00
141;BME280;65;48.778;9.160;2023-12-20T10:18:41;98868.16;;;5.83;100.00
141;BME280;65;48.778;9.160;2023-12-20T10:21:27;98865.75;;;6.03;100.00
141;BME280;65;48.778;9.160;2023-12-20T10:24:17;98853.94;;;6.17;100.00
141;BME280;65;48.778;9.160;2023-12-20T10:27:08;98847.94;;;6.13;100.00
141;BME280;65;48.778;9.160;2023-12-20T10:29:54;98848.31;;;6.02;100.00
141;BME280;65;48.778;9.160;2023-12-20T10:32:40;98833.84;;;5.91;100.00
141;BME280;65;48.778;9.160;2023-12-20T10:35:26;98832.94;;;5.92;100.00
141;BME280;65;48.778;9.160;2023-12-20T10:38:12;98839.94;;;5.91;100.00
141;BME280;65;48.778;9.160;2023-12-20T10:41:04;98831.59;;;6.05;100.00
141;BME280;65;48.778;9.160;2023-12-20T10:44:02;98837.69;;;6.06;100.00
141;BME280;65;48.778;9.160;2023-12-20T10:46:48;98834.91;;;6.10;100.00
141;BME280;65;48.778;9.160;2023-12-20T10:49:38;98842.94;;;6.06;100.00
141;BME280;65;48.778;9.160;2023-12-20T10:52:24;98843.97;;;6.01;100.00
141;BME280;65;48.778;9.160;2023-12-20T10:55:13;98838.13;;;5.93;100.00
141;BME280;65;48.778;9.160;2023-12-20T10:58:07;98830.53;;;5.84;100.00
141;BME280;65;48.778;9.160;2023-12-20T11:01:00;98837.06;;;5.71;100.00
141;BME280;65;48.778;9.160;2023-12-20T11:03:52;98827.59;;;5.67;100.00
141;BME280;65;48.778;9.160;2023-12-20T11:06:57;98829.31;;;5.68;100.00
141;BME280;65;48.778;9.160;2023-12-20T11:09:56;98833.53;;;6.00;100.00
141;BME280;65;48.778;9.160;2023-12-20T11:13:09;98823.94;;;6.24;100.00
141;BME280;65;48.778;9.160;2023-12-20T11:15:56;98821.25;;;6.25;100.00
141;BME280;65;48.778;9.160;2023-12-20T11:18:42;98831.81;;;6.24;100.00
141;BME280;65;48.778;9.160;2023-12-20T11:21:29;98817.03;;;6.21;100.00
141;BME280;65;48.778;9.160;2023-12-20T11:24:15;98825.00;;;6.18;100.00
141;BME280;65;48.778;9.160;2023-12-20T11:27:01;98817.56;;;6.06;100.00
141;BME280;65;48.778;9.160;2023-12-20T11:29:58;98814.69;;;5.87;100.00
141;BME280;65;48.778;9.160;2023-12-20T11:32:46;98824.59;;;5.79;100.00
141;BME280;65;48.778;9.160;2023-12-20T11:35:33;98823.53;;;5.85;100.00
141;BME280;65;48.778;9.160;2023-12-20T11:38:23;98820.56;;;5.95;100.00
141;BME280;65;48.778;9.160;2023-12-20T11:41:10;98821.47;;;5.94;100.00
141;BME280;65;48.778;9.160;2023-12-20T11:43:56;98826.31;;;5.80;97.41
141;BME280;65;48.778;9.160;2023-12-20T11:46:42;98819.41;;;5.76;100.00
141;BME280;65;48.778;9.160;2023-12-20T11:49:28;98827.34;;;5.75;99.02
141;BME280;65;48.778;9.160;2023-12-20T11:52:16;98815.50;;;5.63;100.00
141;BME280;65;48.778;9.160;2023-12-20T11:55:02;98811.81;;;5.68;100.00
141;BME280;65;48.778;9.160;2023-12-20T11:57:50;98809.25;;;5.67;100.00
141;BME280;65;48.778;9.160;2023-12-20T12:00:36;98809.13;;;5.70;97.68
141;BME280;65;48.778;9.160;2023-12-20T12:03:22;98808.38;;;5.66;97.23
141;BME280;65;48.778;9.160;2023-12-20T12:06:12;98802.59;;;5.57;96.48
141;BME280;65;48.778;9.160;2023-12-20T12:08:58;98801.28;;;5.70;100.00
141;BME280;65;48.778;9.160;2023-12-20T12:11:44;98796.53;;;5.81;100.00
141;BME280;65;48.778;9.160;2023-12-20T12:14:30;98792.47;;;5.99;95.72
141;BME280;65;48.778;9.160;2023-12-20T12:17:16;98788.91;;;6.00;97.51
141;BME280;65;48.778;9.160;2023-12-20T12:20:05;98777.81;;;6.17;95.84
141;BME280;65;48.778;9.160;2023-12-20T12:23:04;98771.34;;;6.50;94.50
141;BME280;65;48.778;9.160;2023-12-20T12:25:50;98773.34;;;6.67;94.15
141;BME280;65;48.778;9.160;2023-12-20T12:28:35;98780.41;;;6.65;91.75
141;BME280;65;48.778;9.160;2023-12-20T12:31:21;98763.50;;;6.72;93.35
141;BME280;65;48.778;9.160;2023-12-20T12:34:07;98761.97;;;6.66;89.36
141;BME280;65;48.778;9.160;2023-12-20T12:36:55;98762.69;;;6.48;91.91
141;BME280;65;48.778;9.160;2023-12-20T12:39:41;98772.91;;;6.31;95.29
141;BME280;65;48.778;9.160;2023-12-20T12:42:26;98775.38;;;6.35;96.16
141;BME280;65;48.778;9.160;2023-12-20T12:45:14;98767.84;;;6.26;96.03
141;BME280;65;48.778;9.160;2023-12-20T12:48:00;98758.66;;;6.15;94.82
141;BME280;65;48.778;9.160;2023-12-20T12:50:46;98762.66;;;6.25;95.41
141;BME280;65;48.778;9.160;2023-12-20T12:53:31;98766.06;;;6.27;95.88
141;BME280;65;48.778;9.160;2023-12-20T12:56:17;98771.00;;;6.36;93.98
141;BME280;65;48.778;9.160;2023-12-20T12:59:03;98777.59;;;6.23;96.14
141;BME280;65;48.778;9.160;2023-12-20T13:01:49;98787.06;;;6.27;94.04
141;BME280;65;48.778;9.160;2023-12-20T13:04:34;98774.16;;;6.21;96.13
141;BME280;65;48.778;9.160;2023-12-20T13:07:20;98773.25;;;6.22;91.34
141;BME280;65;48.778;9.160;2023-12-20T13:10:07;98775.03;;;6.21;93.83
141;BME280;65;48.778;9.160;2023-12-20T13:12:52;98770.53;;;6.25;91.71
141;BME280;65;48.778;9.160;2023-12-20T13:15:38;98769.09;;;6.16;96.74
141;BME280;65;48.778;9.160;2023-12-20T13:18:24;98768.94;;;6.21;91.58
141;BME280;65;48.778;9.160;2023-12-20T13:21:10;98772.88;;;6.32;91.13
141;BME280;65;48.778;9.160;2023-12-20T13:23:55;98761.75;;;6.26;90.88
141;BME280;65;48.778;9.160;2023-12-20T13:26:41;98765.84;;;6.33;91.98
141;BME280;65;48.778;9.160;2023-12-20T13:29:27;98772.94;;;6.54;90.39
141;BME280;65;48.778;9.160;2023-12-20T13:32:13;98763.03;;;6.39;95.54
141;BME280;65;48.778;9.160;2023-12-20T13:34:58;98759.88;;;6.53;92.27
141;BME280;65;48.778;9.160;2023-12-20T13:37:44;98759.47;;;6.63;87.22
141;BME280;65;48.778;9.160;2023-12-20T13:40:30;98759.03;;;6.52;85.61
141;BME280;65;48.778;9.160;2023-12-20T13:43:15;98768.38;;;6.36;92.98
141;BME280;65;48.778;9.160;2023-12-20T13:46:06;98770.19;;;6.34;89.47
141;BME280;65;48.778;9.160;2023-12-20T13:48:51;98767.91;;;6.25;87.89
141;BME280;65;48.778;9.160;2023-12-20T13:51:37;98769.72;;;6.23;90.43
141;BME280;65;48.778;9.160;2023-12-20T13:54:24;98773.25;;;6.22;94.07
141;BME280;65;48.778;9.160;2023-12-20T13:57:10;98780.34;;;6.20;92.04
141;BME280;65;48.778;9.160;2023-12-20T13:59:55;98782.00;;;6.22;92.62
141;BME280;65;48.778;9.160;2023-12-20T14:02:44;98783.41;;;6.08;95.02
141;BME280;65;48.778;9.160;2023-12-20T14:05:31;98767.72;;;6.06;95.36
141;BME280;65;48.778;9.160;2023-12-20T14:08:17;98765.84;;;6.10;92.94
141;BME280;65;48.778;9.160;2023-12-20T14:11:03;98756.41;;;6.04;97.25
141;BME280;65;48.778;9.160;2023-12-20T14:13:48;98760.91;;;6.00;94.14
141;BME280;65;48.778;9.160;2023-12-20T14:16:35;98757.59;;;5.95;95.69
141;BME280;65;48.778;9.160;2023-12-20T14:19:20;98738.56;;;5.90;96.51
141;BME280;65;48.778;9.160;2023-12-20T14:22:06;98731.88;;;5.80;100.00
141;BME280;65;48.778;9.160;2023-12-20T14:24:52;98737.31;;;5.74;100.00
141;BME280;65;48.778;9.160;2023-12-20T14:27:39;98737.13;;;5.80;99.41
141;BME280;65;48.778;9.160;2023-12-20T14:30:24;98728.19;;;5.86;100.00
141;BME280;65;48.778;9.160;2023-12-20T14:33:10;98739.66;;;5.83;100.00
141;BME280;65;48.778;9.160;2023-12-20T14:35:56;98730.19;;;5.78;100.00
141;BME280;65;48.778;9.160;2023-12-20T14:38:42;98740.16;;;5.68;100.00
141;BME280;65;48.778;9.160;2023-12-20T14:41:27;98735.19;;;5.60;100.00
141;BME280;65;48.778;9.160;2023-12-20T14:44:13;98734.63;;;5.51;100.00
141;BME280;65;48.778;9.160;2023-12-20T14:46:59;98733.25;;;5.40;100.00
141;BME280;65;48.778;9.160;2023-12-20T14:49:47;98738.69;;;5.34;100.00
141;BME280;65;48.778;9.160;2023-12-20T14:52:33;98740.50;;;5.32;100.00
141;BME280;65;48.778;9.160;2023-12-20T14:55:19;98737.69;;;5.38;100.00
141;BME280;65;48.778;9.160;2023-12-20T14:58:05;98742.81;;;5.42;100.00
141;BME280;65;48.778;9.160;2023-12-20T15:00:51;98738.63;;;5.36;100.00
141;BME280;65;48.778;9.160;2023-12-20T15:03:36;98733.59;;;5.30;100.00
141;BME280;65;48.778;9.160;2023-12-20T15:06:22;98740.59;;;5.29;100.00
141;BME280;65;48.778;9.160;2023-12-20T15:09:08;98742.22;;;5.33;100.00
141;BME280;65;48.778;9.160;2023-12-20T15:11:54;98744.75;;;5.36;100.00
141;BME280;65;48.778;9.160;2023-12-20T15:14:40;98742.91;;;5.38;100.00
141;BME280;65;48.778;9.160;2023-12-20T15:17:25;98741.25;;;5.36;100.00
141;BME280;65;48.778;9.160;2023-12-20T15:20:12;98749.19;;;5.34;100.00
141;BME280;65;48.778;9.160;2023-12-20T15:22:58;98743.94;;;5.34;100.00
141;BME280;65;48.778;9.160;2023-12-20T15:25:50;98745.16;;;5.24;100.00
141;BME280;65;48.778;9.160;2023-12-20T15:28:35;98740.81;;;5.23;100.00
141;BME280;65;48.778;9.160;2023-12-20T15:31:21;98735.47;;;5.26;100.00
141;BME280;65;48.778;9.160;2023-12-20T15:34:12;98743.34;;;5.26;100.00
141;BME280;65;48.778;9.160;2023-12-20T15:36:58;98741.50;;;5.28;100.00
141;BME280;65;48.778;9.160;2023-12-20T15:39:44;98734.66;;;5.24;100.00
141;BME280;65;48.778;9.160;2023-12-20T15:42:30;98738.13;;;5.25;100.00
141;BME280;65;48.778;9.160;2023-12-20T15:45:17;98733.00;;;5.22;100.00
141;BME280;65;48.778;9.160;2023-12-20T15:48:04;98734.66;;;5.24;100.00